Time;durP1;ratioP1;P1;durP2;ratioP2;P2;SDS_P1;SDS_P2;PMS_P1;PMS_P2;Temp;Humidity;BMP_temperature;BMP_pressure;BME280_temperature;BME280_humidity;BME280_pressure;Samples;Min_cycle;Max_cycle;Signal;HPM_P1;HPM_P2
2022/01/03 00:00:32;;;;;;;21.20;2.63;;;11.30;99.90;;;;;;5032546;28;20017;-75
2022/01/03 00:03:01;;;;;;;26.90;3.35;;;11.30;99.90;;;;;;5032695;28;20409;-75
2022/01/03 00:05:27;;;;;;;20.77;2.30;;;11.30;99.90;;;;;;5032510;28;20029;-75
2022/01/03 00:07:53;;;;;;;20.60;2.67;;;11.30;99.90;;;;;;5032921;28;20029;-76
2022/01/03 00:10:20;;;;;;;24.15;3.35;;;11.30;99.90;;;;;;5032881;28;20021;-75
2022/01/03 00:12:47;;;;;;;22.55;2.80;;;11.30;99.90;;;;;;5032633;28;20032;-76
2022/01/03 00:15:14;;;;;;;22.95;3.17;;;11.30;99.90;;;;;;5032384;28;20477;-75
2022/01/03 00:17:41;;;;;;;27.52;3.10;;;11.20;99.90;;;;;;5032942;28;20052;-76
2022/01/03 00:20:09;;;;;;;25.33;2.70;;;11.20;99.90;;;;;;5037121;28;20025;-76
2022/01/03 00:22:56;;;;;;;26.83;3.17;;;11.20;99.90;;;;;;5039748;28;20570;-75
2022/01/03 00:25:23;;;;;;;23.58;3.00;;;11.20;99.90;;;;;;5036437;28;20380;-75
2022/01/03 00:28:07;;;;;;;31.00;4.03;;;11.20;99.90;;;;;;5036658;28;20108;-76
2022/01/03 00:30:35;;;;;;;24.27;2.95;;;11.20;99.90;;;;;;5036475;28;20025;-76
2022/01/03 00:33:04;;;;;;;34.60;4.47;;;11.20;99.90;;;;;;5036748;28;20036;-76
2022/01/03 00:35:33;;;;;;;25.27;3.13;;;11.20;99.90;;;;;;5035931;28;20087;-75
2022/01/03 00:38:00;;;;;;;28.50;3.17;;;11.20;99.90;;;;;;5036976;28;20072;-76
2022/01/03 00:40:26;;;;;;;25.38;3.13;;;11.20;99.90;;;;;;5035799;28;20033;-75
2022/01/03 00:42:52;;;;;;;29.13;4.05;;;11.20;99.90;;;;;;5036336;28;20681;-76
2022/01/03 00:45:19;;;;;;;28.73;3.28;;;11.20;99.90;;;;;;5036321;28;20096;-75
2022/01/03 00:47:45;;;;;;;29.95;3.67;;;11.20;99.90;;;;;;5036361;28;20033;-76
2022/01/03 00:50:16;;;;;;;33.25;3.70;;;11.20;99.90;;;;;;5036374;28;20105;-76
2022/01/03 00:52:43;;;;;;;35.53;3.90;;;11.20;99.90;;;;;;5036276;28;20037;-76
2022/01/03 00:55:09;;;;;;;30.70;3.45;;;11.20;99.90;;;;;;5035489;28;20128;-76
2022/01/03 00:57:53;;;;;;;31.75;4.47;;;11.20;99.90;;;;;;5035682;28;20041;-75
2022/01/03 01:00:19;;;;;;;26.00;3.40;;;11.20;99.90;;;;;;5034993;28;20032;-75
2022/01/03 01:03:09;;;;;;;30.65;4.25;;;11.20;99.90;;;;;;5035862;28;20202;-75
2022/01/03 01:05:36;;;;;;;32.60;4.55;;;11.20;99.90;;;;;;5035683;28;20037;-75
2022/01/03 01:08:02;;;;;;;35.78;4.35;;;11.20;99.90;;;;;;5035785;28;20053;-75
2022/01/03 01:10:30;;;;;;;37.95;5.32;;;11.20;99.90;;;;;;5035766;28;20111;-75
2022/01/03 01:12:56;;;;;;;30.88;3.90;;;11.20;99.90;;;;;;5036017;28;20025;-75
2022/01/03 01:15:24;;;;;;;33.97;4.22;;;11.20;99.90;;;;;;5035504;28;20125;-75
2022/01/03 01:17:53;;;;;;;26.98;3.88;;;11.20;99.90;;;;;;5039137;28;20105;-75
2022/01/03 01:20:20;;;;;;;32.03;3.67;;;11.20;99.90;;;;;;5035424;28;20480;-76
2022/01/03 01:22:46;;;;;;;28.98;3.75;;;11.20;99.90;;;;;;5035704;28;20511;-75
2022/01/03 01:27:48;;;;;;;31.98;4.07;;;11.20;99.90;;;;;;5035262;28;20524;-76
2022/01/03 01:30:27;;;;;;;27.25;3.35;;;11.20;99.90;;;;;;5034829;28;20101;-76
2022/01/03 01:32:58;;;;;;;35.85;4.47;;;11.20;99.90;;;;;;5035672;28;20036;-76
2022/01/03 01:35:26;;;;;;;20.88;3.17;;;11.20;99.90;;;;;;5034295;28;20479;-75
2022/01/03 01:37:54;;;;;;;34.72;4.03;;;11.20;99.90;;;;;;5015718;28;20065;-76
2022/01/03 01:40:22;;;;;;;33.95;4.22;;;11.20;99.90;;;;;;5033333;28;20025;-75
2022/01/03 01:42:48;;;;;;;31.77;3.42;;;11.20;99.90;;;;;;5035590;28;20038;-76
2022/01/03 01:45:19;;;;;;;27.35;3.65;;;11.20;99.90;;;;;;5035043;28;20392;-75
2022/01/03 01:47:48;;;;;;;36.67;3.95;;;11.20;99.90;;;;;;5035150;28;20029;-75
2022/01/03 01:50:14;;;;;;;28.95;3.55;;;11.20;99.90;;;;;;5035017;28;20156;-76
2022/01/03 01:52:42;;;;;;;27.25;3.58;;;11.20;99.90;;;;;;5035188;28;20025;-75
2022/01/03 01:55:11;;;;;;;28.83;3.67;;;11.20;99.90;;;;;;5034856;28;20049;-75
2022/01/03 01:57:46;;;;;;;28.08;3.83;;;11.20;99.90;;;;;;5033835;28;20026;-75
2022/01/03 02:00:13;;;;;;;26.38;3.60;;;11.10;99.90;;;;;;5034523;28;20104;-75
2022/01/03 02:03:13;;;;;;;33.90;4.13;;;11.10;99.90;;;;;;5020670;28;20045;-76
2022/01/03 02:05:47;;;;;;;26.90;3.70;;;11.20;99.90;;;;;;5034459;28;20055;-75
2022/01/03 02:08:21;;;;;;;28.02;4.28;;;11.10;99.90;;;;;;5034995;28;20400;-75
2022/01/03 02:10:55;;;;;;;29.88;3.65;;;11.10;99.90;;;;;;5033569;28;20025;-75
2022/01/03 02:13:23;;;;;;;26.67;3.25;;;11.10;99.90;;;;;;5035818;28;20024;-74
2022/01/03 02:15:57;;;;;;;25.10;3.63;;;11.10;99.90;;;;;;5034301;28;20056;-74
2022/01/03 02:18:25;;;;;;;34.38;4.43;;;11.10;99.90;;;;;;5035064;28;20026;-74
2022/01/03 02:20:52;;;;;;;28.67;3.28;;;11.10;99.90;;;;;;5034114;28;20059;-74
2022/01/03 02:23:18;;;;;;;24.13;3.42;;;11.10;99.90;;;;;;5034743;28;20037;-74
2022/01/03 02:25:43;;;;;;;33.55;3.60;;;11.20;99.90;;;;;;5034163;28;20033;-75
2022/01/03 02:28:09;;;;;;;29.60;3.90;;;11.20;99.90;;;;;;5034188;28;20086;-75
2022/01/03 02:30:35;;;;;;;34.30;4.00;;;11.20;99.90;;;;;;5033963;28;20017;-75
2022/01/03 02:33:02;;;;;;;26.23;3.42;;;11.10;99.90;;;;;;5034527;28;20029;-75
2022/01/03 02:35:28;;;;;;;31.52;4.07;;;11.10;99.90;;;;;;5033985;28;20148;-74
2022/01/03 02:37:54;;;;;;;31.67;3.85;;;11.20;99.90;;;;;;5034135;28;20029;-74
2022/01/03 02:40:21;;;;;;;36.60;5.18;;;11.20;99.90;;;;;;5033907;28;20040;-75
2022/01/03 02:42:48;;;;;;;30.73;3.85;;;11.20;99.90;;;;;;5033419;28;20041;-74
2022/01/03 02:45:19;;;;;;;34.90;4.15;;;11.20;99.90;;;;;;5034212;28;20022;-75
2022/01/03 02:47:49;;;;;;;35.42;4.75;;;11.20;99.90;;;;;;5034546;28;20025;-75
2022/01/03 02:50:17;;;;;;;37.70;3.83;;;11.20;99.90;;;;;;5033745;28;20025;-74
2022/01/03 02:52:43;;;;;;;34.53;5.35;;;11.10;99.90;;;;;;5034176;28;20052;-75
2022/01/03 02:55:10;;;;;;;36.60;4.65;;;11.20;99.90;;;;;;5033763;28;20052;-75
2022/01/03 02:57:41;;;;;;;29.35;3.55;;;11.10;99.90;;;;;;5033715;28;20418;-75
2022/01/03 03:00:11;;;;;;;37.65;4.07;;;11.20;99.90;;;;;;5033241;28;20472;-75
2022/01/03 03:02:36;;;;;;;29.70;3.60;;;11.20;99.90;;;;;;5033401;28;20037;-75
2022/01/03 03:05:05;;;;;;;25.02;3.55;;;11.20;99.90;;;;;;5033521;28;20135;-75
2022/01/03 03:07:31;;;;;;;34.63;3.80;;;11.10;99.90;;;;;;5033646;28;20030;-75
2022/01/03 03:09:57;;;;;;;28.48;3.15;;;11.10;99.90;;;;;;5034126;28;20362;-75
2022/01/03 03:12:24;;;;;;;30.35;3.60;;;11.10;99.90;;;;;;5033563;28;20036;-75
2022/01/03 03:14:50;;;;;;;33.55;4.18;;;11.10;99.90;;;;;;5033519;28;20421;-75
2022/01/03 03:17:19;;;;;;;32.90;3.97;;;11.10;99.90;;;;;;5033527;28;20034;-75
2022/01/03 03:19:55;;;;;;;27.65;3.17;;;11.10;99.90;;;;;;5033163;28;20030;-75
2022/01/03 03:22:23;;;;;;;29.98;3.70;;;11.10;99.90;;;;;;5033066;28;20164;-75
2022/01/03 03:24:49;;;;;;;25.98;3.03;;;11.10;99.90;;;;;;5033227;28;20030;-75
2022/01/03 03:27:15;;;;;;;29.33;3.63;;;11.00;99.90;;;;;;5033440;28;20026;-75
2022/01/03 03:29:50;;;;;;;27.88;3.95;;;11.10;99.90;;;;;;5032885;28;20468;-74
2022/01/03 03:32:17;;;;;;;35.55;4.40;;;11.10;99.90;;;;;;5033454;28;20091;-75
2022/01/03 03:34:46;;;;;;;30.48;3.20;;;11.10;99.90;;;;;;5033145;28;20025;-75
2022/01/03 03:37:12;;;;;;;30.27;3.85;;;11.10;99.90;;;;;;5032812;28;20507;-75
2022/01/03 03:39:39;;;;;;;32.55;3.92;;;11.10;99.90;;;;;;5032698;28;20469;-75
2022/01/03 03:42:07;;;;;;;29.75;3.17;;;11.00;99.90;;;;;;5032771;28;20049;-76
2022/01/03 03:44:34;;;;;;;31.67;3.63;;;11.00;99.90;;;;;;5032940;28;20083;-77
2022/01/03 03:47:00;;;;;;;29.55;4.05;;;11.10;99.90;;;;;;5032827;28;20116;-77
2022/01/03 03:49:25;;;;;;;35.58;4.45;;;11.00;99.90;;;;;;5033812;28;20397;-77
2022/01/03 03:51:51;;;;;;;29.85;3.45;;;11.00;99.90;;;;;;5033355;28;20071;-77
2022/01/03 03:54:17;;;;;;;28.33;3.83;;;11.00;99.90;;;;;;5032803;28;20061;-77
2022/01/03 03:56:43;;;;;;;26.55;3.53;;;11.00;99.90;;;;;;5032997;28;20025;-77
2022/01/03 03:59:09;;;;;;;36.78;4.05;;;11.00;99.90;;;;;;5032835;28;20399;-77
2022/01/03 04:01:34;;;;;;;30.33;3.65;;;11.00;99.90;;;;;;5033108;28;20021;-77
2022/01/03 04:04:00;;;;;;;30.08;4.75;;;10.90;99.90;;;;;;5033098;28;20037;-77
2022/01/03 04:06:26;;;;;;;29.63;4.50;;;10.90;99.90;;;;;;5033253;28;20025;-77
2022/01/03 04:08:51;;;;;;;27.55;4.53;;;10.80;99.90;;;;;;5039372;28;20030;-77
2022/01/03 04:11:17;;;;;;;34.90;4.05;;;10.90;99.90;;;;;;5043403;28;20026;-77
2022/01/03 04:13:43;;;;;;;25.23;3.72;;;10.90;99.90;;;;;;5033197;28;20079;-77
2022/01/03 04:16:09;;;;;;;29.70;4.05;;;10.90;99.90;;;;;;5032959;28;20033;-78
2022/01/03 04:18:34;;;;;;;34.60;4.30;;;10.90;99.90;;;;;;5033023;28;20108;-77
2022/01/03 04:21:03;;;;;;;33.03;4.18;;;10.90;99.90;;;;;;5033166;28;20036;-77
2022/01/03 04:23:28;;;;;;;34.00;4.05;;;10.90;99.90;;;;;;5033263;28;20033;-77
2022/01/03 04:25:54;;;;;;;32.47;4.25;;;10.90;99.90;;;;;;5032835;28;20029;-77
2022/01/03 04:28:20;;;;;;;31.42;3.67;;;10.90;99.90;;;;;;5033461;28;20037;-77
2022/01/03 04:30:46;;;;;;;29.92;3.83;;;10.90;99.90;;;;;;5032652;28;20393;-77
2022/01/03 04:33:12;;;;;;;24.58;3.97;;;10.90;99.90;;;;;;5032944;28;20033;-77
2022/01/03 04:35:38;;;;;;;35.85;4.55;;;10.90;99.90;;;;;;5033175;28;20029;-77
2022/01/03 04:38:04;;;;;;;29.38;3.70;;;11.00;99.90;;;;;;5033113;28;20028;-77
2022/01/03 04:40:30;;;;;;;34.72;4.47;;;11.00;99.90;;;;;;5032704;28;20021;-77
2022/01/03 04:42:56;;;;;;;37.95;4.47;;;11.00;99.90;;;;;;5032692;28;20041;-77
2022/01/03 04:45:21;;;;;;;33.53;4.10;;;11.00;99.90;;;;;;5032332;28;20083;-76
2022/01/03 04:47:48;;;;;;;33.75;4.30;;;11.00;99.90;;;;;;5032305;28;20021;-76
2022/01/03 04:50:13;;;;;;;27.40;4.18;;;11.00;99.90;;;;;;5032774;28;20033;-77
2022/01/03 04:52:39;;;;;;;33.67;4.50;;;11.00;99.90;;;;;;5032247;28;20029;-76
2022/01/03 04:55:05;;;;;;;37.60;5.35;;;11.00;99.90;;;;;;5032588;28;20134;-77
2022/01/03 04:57:30;;;;;;;34.95;4.50;;;11.00;99.90;;;;;;5032115;28;20117;-76
2022/01/03 04:59:56;;;;;;;35.28;4.20;;;10.90;99.90;;;;;;5032229;28;20032;-77
2022/01/03 05:02:22;;;;;;;30.63;4.65;;;10.90;99.90;;;;;;5031753;28;20029;-77
2022/01/03 05:04:47;;;;;;;32.38;4.68;;;10.90;99.90;;;;;;5032827;28;20078;-77
2022/01/03 05:07:13;;;;;;;33.72;5.38;;;11.00;99.90;;;;;;5036051;28;20108;-75
2022/01/03 05:09:39;;;;;;;25.60;4.05;;;10.90;99.90;;;;;;5035998;28;20369;-76
2022/01/03 05:12:05;;;;;;;34.30;4.28;;;10.90;99.90;;;;;;5034990;28;20029;-77
2022/01/03 05:14:31;;;;;;;28.00;3.78;;;10.90;99.90;;;;;;5035936;28;20028;-76
2022/01/03 05:16:57;;;;;;;34.95;5.00;;;10.90;99.90;;;;;;5035415;28;20029;-75
2022/01/03 05:19:26;;;;;;;31.65;4.55;;;10.90;99.90;;;;;;5036273;28;20029;-76
2022/01/03 05:21:52;;;;;;;31.88;4.68;;;11.00;99.90;;;;;;5035596;28;20072;-77
2022/01/03 05:24:19;;;;;;;34.13;4.43;;;10.90;99.90;;;;;;5036500;28;20057;-77
2022/01/03 05:26:45;;;;;;;34.55;4.03;;;11.00;99.90;;;;;;5035861;28;20072;-77
2022/01/03 05:29:10;;;;;;;42.13;4.88;;;11.00;99.90;;;;;;5035943;28;20029;-77
2022/01/03 05:31:36;;;;;;;31.92;4.07;;;11.00;99.90;;;;;;5035150;28;20029;-77
2022/01/03 05:34:02;;;;;;;31.35;4.13;;;11.00;99.90;;;;;;5035852;28;20036;-77
2022/01/03 05:36:28;;;;;;;23.77;3.63;;;11.00;99.90;;;;;;5035648;28;20084;-77
2022/01/03 05:38:54;;;;;;;30.20;3.80;;;11.00;99.90;;;;;;5035550;28;20075;-76
2022/01/03 05:41:21;;;;;;;32.67;4.22;;;11.00;99.90;;;;;;5035306;28;20527;-76
2022/01/03 05:43:47;;;;;;;32.53;3.92;;;11.00;99.90;;;;;;5034885;28;20527;-76
2022/01/03 05:46:13;;;;;;;40.92;6.05;;;10.90;99.90;;;;;;5035242;28;20022;-76
2022/01/03 05:48:38;;;;;;;27.58;3.90;;;10.90;99.90;;;;;;5035489;28;20029;-76
2022/01/03 05:51:04;;;;;;;32.63;4.82;;;11.00;99.90;;;;;;5035493;28;20477;-76
2022/01/03 05:53:33;;;;;;;34.65;4.03;;;11.00;99.90;;;;;;5035048;28;20036;-76
2022/01/03 05:55:59;;;;;;;28.40;5.03;;;11.00;99.90;;;;;;5034497;28;20153;-76
2022/01/03 05:58:24;;;;;;;31.58;3.35;;;11.00;99.90;;;;;;5035110;28;20029;-76
2022/01/03 06:00:50;;;;;;;33.80;3.83;;;11.10;99.90;;;;;;5038280;28;20112;-76
2022/01/03 06:03:20;;;;;;;36.15;4.60;;;11.00;99.90;;;;;;5036580;28;20481;-77
2022/01/03 06:08:21;;;;;;;33.22;4.10;;;11.00;99.90;;;;;;5034745;28;20021;-77
2022/01/03 06:10:47;;;;;;;34.75;4.93;;;11.00;99.90;;;;;;5034900;28;20164;-76
2022/01/03 06:13:13;;;;;;;34.72;3.88;;;11.00;99.90;;;;;;5034887;28;20075;-76
2022/01/03 06:15:39;;;;;;;26.05;3.85;;;11.00;99.90;;;;;;5034278;28;20480;-76
2022/01/03 06:18:10;;;;;;;35.15;4.38;;;11.00;99.90;;;;;;5033551;28;20481;-77
2022/01/03 06:20:37;;;;;;;26.42;3.90;;;11.00;99.90;;;;;;5034702;28;20091;-76
2022/01/03 06:23:03;;;;;;;32.17;3.70;;;11.00;99.90;;;;;;5034672;28;20492;-76
2022/01/03 06:25:28;;;;;;;31.25;3.90;;;11.00;99.90;;;;;;5034088;28;20044;-76
2022/01/03 06:27:54;;;;;;;30.90;4.15;;;11.00;99.90;;;;;;5034729;28;20021;-77
2022/01/03 06:30:19;;;;;;;38.47;5.28;;;11.10;99.90;;;;;;5034037;28;20029;-77
2022/01/03 06:32:45;;;;;;;33.33;3.78;;;11.00;99.90;;;;;;5034108;28;20060;-75
2022/01/03 06:35:11;;;;;;;31.10;3.50;;;11.10;99.90;;;;;;5034428;28;20397;-75
2022/01/03 06:37:36;;;;;;;26.63;4.30;;;11.00;99.90;;;;;;5033712;28;20037;-74
2022/01/03 06:40:04;;;;;;;29.25;3.85;;;11.00;99.90;;;;;;5033568;28;20033;-74
2022/01/03 06:42:30;;;;;;;24.67;3.42;;;11.10;99.90;;;;;;5033945;28;20041;-74
2022/01/03 06:44:55;;;;;;;27.25;3.38;;;11.00;99.90;;;;;;5033529;28;20032;-75
2022/01/03 06:47:21;;;;;;;36.67;3.70;;;11.00;99.90;;;;;;5033596;28;20033;-76
2022/01/03 06:49:47;;;;;;;25.02;4.30;;;11.00;99.60;;;;;;5033394;28;20021;-76
2022/01/03 06:52:13;;;;;;;26.67;3.72;;;11.00;99.70;;;;;;5033864;28;20028;-76
2022/01/03 06:54:39;;;;;;;30.90;4.80;;;11.00;99.70;;;;;;5033316;28;20038;-76
2022/01/03 06:57:05;;;;;;;26.67;3.40;;;11.10;99.90;;;;;;5038167;28;20071;-76
2022/01/03 06:59:31;;;;;;;27.48;3.45;;;11.10;99.60;;;;;;5045129;28;20366;-77
2022/01/03 07:01:56;;;;;;;28.30;4.28;;;11.10;99.60;;;;;;5033992;28;20095;-79
2022/01/03 07:04:22;;;;;;;33.65;4.05;;;11.10;99.80;;;;;;5032638;28;20461;-76
2022/01/03 07:06:48;;;;;;;25.63;3.97;;;11.10;99.60;;;;;;5032815;28;20030;-76
2022/01/03 07:09:13;;;;;;;23.77;3.00;;;11.10;99.60;;;;;;5032821;28;20025;-76
2022/01/03 07:11:39;;;;;;;27.35;3.85;;;11.10;99.70;;;;;;5032908;28;20116;-76
2022/01/03 07:18:56;;;;;;;24.75;3.30;;;11.10;99.40;;;;;;5030192;28;20032;-79
2022/01/03 07:19:35;;;;;;;25.50;3.05;;;11.10;99.50;;;;;;5030572;28;20147;-77
2022/01/03 07:22:04;;;;;;;30.92;3.35;;;11.10;99.50;;;;;;5024599;28;20045;-77
2022/01/03 07:24:35;;;;;;;26.08;3.70;;;11.20;99.50;;;;;;5025734;28;20032;-74
2022/01/03 07:27:05;;;;;;;35.95;4.03;;;11.10;99.50;;;;;;5023588;28;20045;-77
2022/01/03 07:29:31;;;;;;;28.77;3.22;;;11.10;99.60;;;;;;5017725;28;20053;-74
2022/01/03 07:31:57;;;;;;;29.02;3.97;;;11.10;99.60;;;;;;5031210;28;20080;-76
2022/01/03 07:34:23;;;;;;;26.63;3.15;;;11.10;99.60;;;;;;5025192;28;20049;-76
2022/01/03 07:36:49;;;;;;;26.10;3.58;;;11.10;99.70;;;;;;5031654;28;20025;-77
2022/01/03 07:39:15;;;;;;;28.80;3.88;;;11.20;99.80;;;;;;5026784;28;20021;-74
2022/01/03 07:41:40;;;;;;;29.17;3.10;;;11.20;99.70;;;;;;5027164;28;20032;-74
2022/01/03 07:44:06;;;;;;;24.30;3.58;;;11.10;99.70;;;;;;5025659;28;20037;-73
2022/01/03 07:46:32;;;;;;;28.23;3.22;;;11.10;99.80;;;;;;5026902;28;20022;-74
2022/01/03 07:48:57;;;;;;;32.50;4.28;;;11.10;99.80;;;;;;5027895;28;20030;-75
2022/01/03 07:51:23;;;;;;;26.08;3.67;;;11.10;99.90;;;;;;5026478;28;20466;-75
2022/01/03 07:53:49;;;;;;;26.27;3.08;;;11.10;99.80;;;;;;5027838;28;20075;-74
2022/01/03 07:56:14;;;;;;;31.00;3.95;;;11.10;99.80;;;;;;5031674;28;20108;-72
2022/01/03 07:58:40;;;;;;;26.65;4.63;;;11.20;99.80;;;;;;5031368;28;20076;-72
2022/01/03 08:01:06;;;;;;;24.73;3.13;;;11.20;99.70;;;;;;5032348;28;20087;-73
2022/01/03 08:03:32;;;;;;;27.20;4.10;;;11.20;99.60;;;;;;5033248;28;20029;-73
2022/01/03 08:05:58;;;;;;;31.58;4.47;;;11.20;99.50;;;;;;5032260;28;20426;-74
2022/01/03 08:08:24;;;;;;;26.23;3.33;;;11.20;99.50;;;;;;5031736;28;20384;-73
2022/01/03 08:10:50;;;;;;;29.77;3.88;;;11.20;99.60;;;;;;5030748;28;20021;-74
2022/01/03 08:13:16;;;;;;;24.45;3.67;;;11.20;99.70;;;;;;5031523;28;20037;-74
2022/01/03 08:15:42;;;;;;;25.15;3.33;;;11.20;99.70;;;;;;5029597;28;20464;-75
2022/01/03 08:18:08;;;;;;;26.52;3.80;;;11.20;99.70;;;;;;5028973;28;20052;-74
2022/01/03 08:20:34;;;;;;;23.65;3.17;;;11.20;99.40;;;;;;5031095;28;20104;-74
2022/01/03 08:23:00;;;;;;;25.00;3.50;;;11.10;99.40;;;;;;5031564;28;20065;-74
2022/01/03 08:25:26;;;;;;;30.05;4.05;;;11.20;99.50;;;;;;5030912;28;20472;-73
2022/01/03 08:27:52;;;;;;;28.60;3.92;;;11.20;99.40;;;;;;5031498;28;20026;-74
2022/01/03 08:30:18;;;;;;;21.67;4.28;;;11.20;99.20;;;;;;5030904;28;20040;-73
2022/01/03 08:32:43;;;;;;;26.77;3.85;;;11.20;99.10;;;;;;5030830;28;20079;-73
2022/01/03 08:35:10;;;;;;;29.02;3.25;;;11.20;99.30;;;;;;5031307;28;20394;-73
2022/01/03 08:37:36;;;;;;;26.48;4.22;;;11.20;99.30;;;;;;5030560;28;20049;-75
2022/01/03 08:40:04;;;;;;;21.98;2.78;;;11.20;99.10;;;;;;5031198;28;20729;-75
2022/01/03 08:42:31;;;;;;;28.00;4.10;;;11.20;99.20;;;;;;5034441;28;20163;-75
2022/01/03 08:44:57;;;;;;;28.83;3.42;;;11.20;99.00;;;;;;5034411;28;20087;-75
2022/01/03 08:47:23;;;;;;;27.75;3.65;;;11.20;99.10;;;;;;5031743;28;20485;-74
2022/01/03 08:49:48;;;;;;;24.50;3.13;;;11.10;99.20;;;;;;5030975;28;20033;-75
2022/01/03 08:52:15;;;;;;;29.33;4.53;;;11.10;99.00;;;;;;5035557;28;20021;-74
2022/01/03 08:54:41;;;;;;;24.35;3.78;;;11.20;99.10;;;;;;5036105;28;20068;-76
2022/01/03 08:57:06;;;;;;;24.20;3.70;;;11.20;99.00;;;;;;5035621;28;20037;-73
2022/01/03 08:59:32;;;;;;;22.80;4.10;;;11.20;98.80;;;;;;5030171;28;20351;-73
2022/01/03 09:01:58;;;;;;;22.35;3.28;;;11.20;98.80;;;;;;5031038;28;20048;-72
2022/01/03 09:04:24;;;;;;;28.75;3.92;;;11.20;98.80;;;;;;5031743;28;20099;-75
2022/01/03 09:06:51;;;;;;;28.27;3.65;;;11.20;98.70;;;;;;5032254;28;20037;-72
2022/01/03 09:09:17;;;;;;;33.60;5.03;;;11.20;98.50;;;;;;5026527;28;20025;-72
2022/01/03 09:11:43;;;;;;;22.45;3.88;;;11.20;98.60;;;;;;5032419;28;20021;-72
2022/01/03 09:14:09;;;;;;;27.40;3.67;;;11.20;98.60;;;;;;5027340;28;20025;-72
2022/01/03 09:16:34;;;;;;;25.70;3.00;;;11.20;98.70;;;;;;5032386;28;20108;-71
2022/01/03 09:19:00;;;;;;;24.92;3.60;;;11.20;99.00;;;;;;5035438;28;20025;-71
2022/01/03 09:21:25;;;;;;;31.92;4.30;;;11.20;98.80;;;;;;5035468;28;20025;-72
2022/01/03 09:24:05;;;;;;;25.27;3.58;;;11.20;98.90;;;;;;5035069;28;20492;-72
2022/01/03 09:29:17;;;;;;;28.15;3.65;;;11.20;98.90;;;;;;5026584;28;20049;-72
2022/01/03 09:31:43;;;;;;;23.15;3.80;;;11.20;98.90;;;;;;5028892;28;20056;-72
2022/01/03 09:34:09;;;;;;;24.42;2.88;;;11.20;99.00;;;;;;5028517;28;20060;-73
2022/01/03 09:36:35;;;;;;;25.83;3.40;;;11.20;99.00;;;;;;5033955;28;20026;-73
2022/01/03 09:39:03;;;;;;;26.33;3.15;;;11.20;99.10;;;;;;5029274;28;20026;-72
2022/01/03 09:41:29;;;;;;;25.17;3.90;;;11.20;99.10;;;;;;5029549;28;20021;-72
2022/01/03 09:44:00;;;;;;;25.05;3.22;;;11.20;99.20;;;;;;5029760;28;20063;-72
2022/01/03 09:46:32;;;;;;;31.75;4.55;;;11.20;99.20;;;;;;5031444;28;20030;-71
2022/01/03 09:48:58;;;;;;;30.55;3.88;;;11.20;99.00;;;;;;5029458;28;20109;-72
2022/01/03 09:51:27;;;;;;;24.23;3.35;;;11.20;99.10;;;;;;5031436;28;20041;-72
2022/01/03 09:53:56;;;;;;;26.63;3.95;;;11.20;99.10;;;;;;5031254;28;20485;-72
2022/01/03 09:56:22;;;;;;;25.77;3.42;;;11.30;99.10;;;;;;5033931;28;20045;-72
2022/01/03 09:58:48;;;;;;;22.77;3.08;;;11.30;99.10;;;;;;5033309;28;20595;-73
2022/01/03 10:01:15;;;;;;;26.15;4.57;;;11.30;99.00;;;;;;5034422;28;20029;-72
2022/01/03 10:03:47;;;;;;;24.90;3.65;;;11.30;99.00;;;;;;5034310;28;20042;-72
2022/01/03 10:06:19;;;;;;;20.73;3.27;;;11.30;99.00;;;;;;5034553;28;20031;-72
2022/01/03 10:08:46;;;;;;;30.25;4.50;;;11.30;99.00;;;;;;5025748;28;20039;-72
2022/01/03 10:11:11;;;;;;;31.42;3.20;;;11.30;99.00;;;;;;5034282;28;20031;-72
2022/01/03 10:13:37;;;;;;;28.98;3.80;;;11.30;98.90;;;;;;5034312;28;20112;-72
2022/01/03 10:16:03;;;;;;;24.85;4.32;;;11.30;98.70;;;;;;5034496;28;20067;-72
2022/01/03 10:18:29;;;;;;;23.90;3.80;;;11.30;98.80;;;;;;5034733;28;20033;-72
2022/01/03 10:20:56;;;;;;;30.27;3.85;;;11.30;98.90;;;;;;5034322;28;20025;-72
2022/01/03 10:23:21;;;;;;;20.45;3.08;;;11.30;98.80;;;;;;5034187;28;20100;-72
2022/01/03 10:25:47;;;;;;;25.27;2.90;;;11.30;98.50;;;;;;5032868;28;20037;-72
2022/01/03 10:28:24;;;;;;;30.02;4.15;;;11.40;98.60;;;;;;5034115;28;20061;-72
2022/01/03 10:30:50;;;;;;;20.70;3.33;;;11.40;98.50;;;;;;5034338;28;20021;-72
2022/01/03 10:33:22;;;;;;;25.52;3.47;;;11.50;98.30;;;;;;5034241;28;20045;-72
2022/01/03 10:35:50;;;;;;;27.33;3.90;;;11.50;98.10;;;;;;5033819;28;20093;-72
2022/01/03 10:38:34;;;;;;;30.15;3.90;;;11.50;98.00;;;;;;5027709;28;20036;-72
2022/01/03 10:41:18;;;;;;;27.23;3.30;;;11.50;98.00;;;;;;5033009;28;20033;-72
2022/01/03 10:43:46;;;;;;;29.77;3.90;;;11.60;98.10;;;;;;5031921;28;20044;-72
2022/01/03 10:46:29;;;;;;;28.92;3.42;;;11.60;97.90;;;;;;5030936;28;20052;-71
2022/01/03 10:49:16;;;;;;;;;;;11.60;98.00;;;;;;5033300;28;20431;-74
2022/01/03 10:51:42;;;;;;;25.30;3.97;;;11.60;97.70;;;;;;5031780;28;19917;-73
2022/01/03 10:54:11;;;;;;;29.35;3.85;;;11.60;97.70;;;;;;5029693;28;20053;-74
2022/01/03 10:56:42;;;;;;;29.42;3.88;;;11.60;98.00;;;;;;5030177;28;20029;-74
2022/01/03 10:59:21;;;;;;;31.95;5.00;;;11.70;98.10;;;;;;5032392;28;20048;-75
2022/01/03 11:02:01;;;;;;;28.48;3.78;;;11.80;97.80;;;;;;5031435;28;20029;-76
2022/01/03 11:04:31;;;;;;;27.98;3.97;;;11.90;97.60;;;;;;5031684;28;20029;-78
2022/01/03 11:13:13;;;;;;;28.73;4.57;;;12.10;97.50;;;;;;5031556;28;20079;-74
2022/01/03 11:15:48;;;;;;;24.88;3.55;;;12.00;96.90;;;;;;5033811;28;20033;-75
2022/01/03 11:18:34;;;;;;;22.65;3.28;;;12.00;97.00;;;;;;5031645;28;20017;-74
2022/01/03 11:21:13;;;;;;;20.52;3.10;;;12.00;97.20;;;;;;5029326;28;20025;-74
2022/01/03 11:23:59;;;;;;;31.70;4.32;;;11.90;97.00;;;;;;5029793;28;20037;-78
2022/01/03 11:26:26;;;;;;;19.92;3.28;;;11.90;97.20;;;;;;5032237;28;20041;-75
2022/01/03 11:28:52;;;;;;;28.38;4.45;;;11.90;97.20;;;;;;5029641;28;20022;-75
2022/01/03 11:31:19;;;;;;;28.20;3.70;;;11.90;97.20;;;;;;5031010;28;20026;-76
2022/01/03 11:33:47;;;;;;;23.38;3.33;;;11.90;97.30;;;;;;5031705;28;20493;-75
2022/01/03 11:36:15;;;;;;;25.60;3.47;;;12.00;97.20;;;;;;5032129;28;20048;-75
2022/01/03 11:38:41;;;;;;;25.50;3.47;;;12.00;97.20;;;;;;5031801;28;20049;-74
2022/01/03 11:41:09;;;;;;;24.73;3.67;;;12.10;97.20;;;;;;5033474;28;20433;-75
2022/01/03 11:43:36;;;;;;;21.15;3.20;;;12.00;97.10;;;;;;5031528;28;20481;-74
2022/01/03 11:46:04;;;;;;;25.70;3.75;;;12.10;97.20;;;;;;5029799;28;20033;-74
2022/01/03 11:48:30;;;;;;;32.05;3.97;;;12.10;97.20;;;;;;5031505;28;20040;-74
2022/01/03 11:50:58;;;;;;;23.90;2.95;;;12.00;97.30;;;;;;5025237;28;20026;-74
2022/01/03 11:53:25;;;;;;;25.65;3.33;;;12.00;97.30;;;;;;5031287;28;20496;-71
2022/01/03 11:55:57;;;;;;;27.70;3.25;;;12.00;97.40;;;;;;5030299;28;20500;-72
2022/01/03 11:59:08;;;;;;;26.33;3.33;;;12.00;97.20;;;;;;5028805;28;20036;-72
2022/01/03 12:04:33;;;;;;;25.40;3.53;;;12.00;97.40;;;;;;5029765;28;20056;-72
2022/01/03 12:07:05;;;;;;;27.60;3.10;;;11.90;97.40;;;;;;5031252;28;20025;-72
2022/01/03 12:09:33;;;;;;;33.90;4.03;;;11.90;97.50;;;;;;5031093;28;20116;-72
2022/01/03 12:11:59;;;;;;;30.13;3.85;;;11.90;97.60;;;;;;5031037;28;20033;-72
2022/01/03 12:14:37;;;;;;;22.17;3.20;;;11.80;97.50;;;;;;5032582;28;20385;-72
2022/01/03 12:17:07;;;;;;;36.20;4.20;;;11.80;97.70;;;;;;5033014;28;20053;-72
2022/01/03 12:19:40;;;;;;;32.60;4.82;;;11.80;98.10;;;;;;5032211;28;20032;-72
2022/01/03 12:22:12;;;;;;;31.88;3.88;;;11.80;97.90;;;;;;5034500;28;20044;-72
2022/01/03 12:25:02;;;;;;;23.75;3.10;;;11.80;98.00;;;;;;5034449;28;20030;-73
2022/01/03 12:27:41;;;;;;;27.60;4.57;;;11.80;98.10;;;;;;5034099;28;20381;-72
2022/01/03 12:30:15;;;;;;;31.60;4.40;;;11.90;97.90;;;;;;5035280;28;20064;-72
2022/01/03 12:32:45;;;;;;;24.33;3.63;;;11.90;97.40;;;;;;5035836;28;20029;-73
2022/01/03 12:35:17;;;;;;;22.85;3.08;;;11.90;97.30;;;;;;5033219;28;20068;-73
2022/01/03 12:37:50;;;;;;;31.45;4.25;;;11.80;97.30;;;;;;5035147;28;20419;-72
2022/01/03 12:40:28;;;;;;;;;;;11.80;97.70;;;;;;5035892;28;20370;-71
2022/01/03 12:42:59;;;;;;;28.92;4.70;;;11.80;97.60;;;;;;5035827;28;20366;-73
2022/01/03 12:45:34;;;;;;;28.13;3.35;;;11.80;97.60;;;;;;5035328;28;20461;-73
2022/01/03 12:48:09;;;;;;;26.70;4.25;;;11.80;97.60;;;;;;5031897;28;20366;-71
2022/01/03 12:50:37;;;;;;;29.60;4.00;;;11.70;97.50;;;;;;5034649;28;20091;-73
2022/01/03 12:53:05;;;;;;;30.73;4.32;;;11.80;97.80;;;;;;5035267;28;20032;-71
2022/01/03 12:55:37;;;;;;;27.52;3.78;;;11.80;97.90;;;;;;5034500;28;20034;-72
2022/01/03 12:58:23;;;;;;;25.75;3.22;;;11.80;97.70;;;;;;5034691;28;20072;-71
2022/01/03 13:00:49;;;;;;;20.90;2.95;;;11.70;97.60;;;;;;5030667;28;20040;-71
2022/01/03 13:03:25;;;;;;;22.75;2.42;;;11.70;97.60;;;;;;5034868;28;20038;-71